sensor_id;sensor_type;location;lat;lon;timestamp;pressure;altitude;pressure_sealevel;temperature;humidity
73671;BME280;61968;48.178;11.566;2023-05-18T00:00:45;96302.81;;;9.68;37.50
73671;BME280;61968;48.178;11.566;2023-05-18T00:03:12;96292.25;;;9.68;37.48
73671;BME280;61968;48.178;11.566;2023-05-18T00:05:39;96296.50;;;9.69;37.58
73671;BME280;61968;48.178;11.566;2023-05-18T00:08:07;96286.38;;;9.59;37.64
73671;BME280;61968;48.178;11.566;2023-05-18T00:10:35;96289.44;;;9.56;37.77
73671;BME280;61968;48.178;11.566;2023-05-18T00:13:01;96289.88;;;9.53;37.88
73671;BME280;61968;48.178;11.566;2023-05-18T00:15:29;96281.34;;;9.51;38.15
73671;BME280;61968;48.178;11.566;2023-05-18T00:17:56;96277.69;;;9.52;38.02
73671;BME280;61968;48.178;11.566;2023-05-18T00:20:22;96277.28;;;9.48;38.11
73671;BME280;61968;48.178;11.566;2023-05-18T00:22:51;96275.25;;;9.51;37.91
73671;BME280;61968;48.178;11.566;2023-05-18T00:25:17;96273.66;;;9.49;37.98
73671;BME280;61968;48.178;11.566;2023-05-18T00:27:45;96267.97;;;9.46;38.05
73671;BME280;61968;48.178;11.566;2023-05-18T00:30:14;96268.38;;;9.43;38.03
73671;BME280;61968;48.178;11.566;2023-05-18T00:32:40;96271.66;;;9.38;38.12
73671;BME280;61968;48.178;11.566;2023-05-18T00:35:07;96264.75;;;9.37;38.12
73671;BME280;61968;48.178;11.566;2023-05-18T00:37:33;96270.84;;;9.38;37.92
73671;BME280;61968;48.178;11.566;2023-05-18T00:40:00;96267.41;;;9.37;38.32
73671;BME280;61968;48.178;11.566;2023-05-18T00:42:26;96260.31;;;9.31;38.16
73671;BME280;61968;48.178;11.566;2023-05-18T00:44:54;96262.16;;;9.24;38.28
73671;BME280;61968;48.178;11.566;2023-05-18T00:47:21;96254.66;;;9.21;38.48
73671;BME280;61968;48.178;11.566;2023-05-18T00:49:47;96260.34;;;9.18;38.51
73671;BME280;61968;48.178;11.566;2023-05-18T00:52:14;96264.63;;;9.19;38.82
73671;BME280;61968;48.178;11.566;2023-05-18T00:54:42;96260.59;;;9.10;38.88
73671;BME280;61968;48.178;11.566;2023-05-18T00:57:08;96262.81;;;9.13;38.86
73671;BME280;61968;48.178;11.566;2023-05-18T00:59:35;96258.94;;;9.15;38.58
73671;BME280;61968;48.178;11.566;2023-05-18T01:02:04;96261.56;;;9.15;38.60
73671;BME280;61968;48.178;11.566;2023-05-18T01:04:31;96263.25;;;9.10;38.48
73671;BME280;61968;48.178;11.566;2023-05-18T01:06:58;96261.59;;;9.09;38.82
73671;BME280;61968;48.178;11.566;2023-05-18T01:09:30;96263.06;;;8.98;38.51
73671;BME280;61968;48.178;11.566;2023-05-18T01:12:02;96264.47;;;8.94;39.03
73671;BME280;61968;48.178;11.566;2023-05-18T01:14:33;96261.00;;;9.00;38.71
73671;BME280;61968;48.178;11.566;2023-05-18T01:17:07;96258.59;;;8.98;38.93
73671;BME280;61968;48.178;11.566;2023-05-18T01:20:01;96258.38;;;9.00;38.80
73671;BME280;61968;48.178;11.566;2023-05-18T01:22:48;96260.00;;;9.01;38.63
73671;BME280;61968;48.178;11.566;2023-05-18T01:25:20;96256.34;;;9.02;38.90
73671;BME280;61968;48.178;11.566;2023-05-18T01:27:56;96251.69;;;8.97;38.82
73671;BME280;61968;48.178;11.566;2023-05-18T01:30:31;96257.19;;;8.89;38.69
73671;BME280;61968;48.178;11.566;2023-05-18T01:32:58;96256.81;;;8.86;38.80
73671;BME280;61968;48.178;11.566;2023-05-18T01:35:24;96259.22;;;8.87;38.72
73671;BME280;61968;48.178;11.566;2023-05-18T01:37:51;96259.44;;;8.86;38.72
73671;BME280;61968;48.178;11.566;2023-05-18T01:40:17;96255.97;;;8.85;38.50
73671;BME280;61968;48.178;11.566;2023-05-18T01:42:50;96251.94;;;8.76;38.80
73671;BME280;61968;48.178;11.566;2023-05-18T01:45:26;96255.81;;;8.73;39.10
73671;BME280;61968;48.178;11.566;2023-05-18T01:47:56;96254.38;;;8.77;39.06
73671;BME280;61968;48.178;11.566;2023-05-18T01:50:28;96248.09;;;8.78;39.04
73671;BME280;61968;48.178;11.566;2023-05-18T01:52:59;96246.47;;;8.77;38.95
73671;BME280;61968;48.178;11.566;2023-05-18T01:55:29;96246.25;;;8.79;38.79
73671;BME280;61968;48.178;11.566;2023-05-18T01:57:57;96246.06;;;8.80;38.89
73671;BME280;61968;48.178;11.566;2023-05-18T02:00:27;96243.19;;;8.82;38.84
73671;BME280;61968;48.178;11.566;2023-05-18T02:02:53;96249.50;;;8.81;38.91
73671;BME280;61968;48.178;11.566;2023-05-18T02:05:20;96242.22;;;8.70;38.69
73671;BME280;61968;48.178;11.566;2023-05-18T02:07:47;96238.78;;;8.69;38.78
73671;BME280;61968;48.178;11.566;2023-05-18T02:10:13;96234.31;;;8.70;38.69
73671;BME280;61968;48.178;11.566;2023-05-18T02:12:40;96234.91;;;8.65;39.01
73671;BME280;61968;48.178;11.566;2023-05-18T02:15:07;96244.84;;;8.63;38.98
73671;BME280;61968;48.178;11.566;2023-05-18T02:17:35;96240.19;;;8.58;39.10
73671;BME280;61968;48.178;11.566;2023-05-18T02:20:03;96233.09;;;8.52;39.23
73671;BME280;61968;48.178;11.566;2023-05-18T02:22:32;96235.75;;;8.52;38.85
73671;BME280;61968;48.178;11.566;2023-05-18T02:24:58;96243.03;;;8.50;39.12
73671;BME280;61968;48.178;11.566;2023-05-18T02:27:25;96240.81;;;8.47;39.28
73671;BME280;61968;48.178;11.566;2023-05-18T02:29:52;96240.19;;;8.39;39.54
73671;BME280;61968;48.178;11.566;2023-05-18T02:32:19;96241.00;;;8.32;39.64
73671;BME280;61968;48.178;11.566;2023-05-18T02:34:50;96233.72;;;8.34;39.57
73671;BME280;61968;48.178;11.566;2023-05-18T02:37:17;96231.28;;;8.33;39.94
73671;BME280;61968;48.178;11.566;2023-05-18T02:39:43;96229.88;;;8.37;39.92
73671;BME280;61968;48.178;11.566;2023-05-18T02:42:10;96231.09;;;8.34;40.01
73671;BME280;61968;48.178;11.566;2023-05-18T02:44:37;96222.75;;;8.31;39.74
73671;BME280;61968;48.178;11.566;2023-05-18T02:47:04;96221.94;;;8.30;40.25
73671;BME280;61968;48.178;11.566;2023-05-18T02:49:30;96230.69;;;8.38;39.77
73671;BME280;61968;48.178;11.566;2023-05-18T02:51:58;96217.09;;;8.41;39.65
73671;BME280;61968;48.178;11.566;2023-05-18T02:54:25;96222.38;;;8.41;39.71
73671;BME280;61968;48.178;11.566;2023-05-18T02:56:51;96223.59;;;8.38;39.75
73671;BME280;61968;48.178;11.566;2023-05-18T02:59:21;96212.84;;;8.33;40.00
73671;BME280;61968;48.178;11.566;2023-05-18T03:01:47;96219.53;;;8.29;40.26
73671;BME280;61968;48.178;11.566;2023-05-18T03:04:13;96222.78;;;8.24;40.35
73671;BME280;61968;48.178;11.566;2023-05-18T03:06:41;96218.13;;;8.20;40.34
73671;BME280;61968;48.178;11.566;2023-05-18T03:09:11;96223.19;;;8.21;40.56
73671;BME280;61968;48.178;11.566;2023-05-18T03:11:39;96215.50;;;8.20;40.79
73671;BME280;61968;48.178;11.566;2023-05-18T03:14:06;96219.13;;;8.19;40.48
73671;BME280;61968;48.178;11.566;2023-05-18T03:16:32;96219.94;;;8.19;40.82
73671;BME280;61968;48.178;11.566;2023-05-18T03:18:59;96218.53;;;8.17;41.06
73671;BME280;61968;48.178;11.566;2023-05-18T03:21:26;96216.47;;;8.19;40.82
73671;BME280;61968;48.178;11.566;2023-05-18T03:23:57;96219.53;;;8.16;40.70
73671;BME280;61968;48.178;11.566;2023-05-18T03:26:25;96216.31;;;8.07;40.89
73671;BME280;61968;48.178;11.566;2023-05-18T03:28:55;96219.75;;;8.41;51.39
73671;BME280;61968;48.178;11.566;2023-05-18T03:31:21;96214.44;;;9.70;44.45
73671;BME280;61968;48.178;11.566;2023-05-18T03:33:48;96220.53;;;10.03;42.69
73671;BME280;61968;48.178;11.566;2023-05-18T03:36:14;96214.88;;;10.49;40.49
73671;BME280;61968;48.178;11.566;2023-05-18T03:38:41;96213.47;;;10.47;38.54
73671;BME280;61968;48.178;11.566;2023-05-18T03:41:09;96216.69;;;10.49;37.92
73671;BME280;61968;48.178;11.566;2023-05-18T03:43:37;96217.47;;;10.56;39.45
73671;BME280;61968;48.178;11.566;2023-05-18T03:46:04;96226.50;;;10.67;39.38
73671;BME280;61968;48.178;11.566;2023-05-18T03:48:30;96222.25;;;10.66;39.30
73671;BME280;61968;48.178;11.566;2023-05-18T03:50:57;96227.03;;;10.75;39.02
73671;BME280;61968;48.178;11.566;2023-05-18T03:53:24;96221.91;;;10.80;40.21
73671;BME280;61968;48.178;11.566;2023-05-18T03:55:51;96230.03;;;10.85;40.14
73671;BME280;61968;48.178;11.566;2023-05-18T03:58:18;96228.09;;;10.93;40.24
73671;BME280;61968;48.178;11.566;2023-05-18T04:00:46;96225.00;;;10.96;39.84
73671;BME280;61968;48.178;11.566;2023-05-18T04:03:13;96225.00;;;10.96;39.49
73671;BME280;61968;48.178;11.566;2023-05-18T04:05:40;96227.38;;;11.04;39.38
73671;BME280;61968;48.178;11.566;2023-05-18T04:08:07;96226.78;;;11.02;39.29
73671;BME280;61968;48.178;11.566;2023-05-18T04:10:38;96229.28;;;10.97;39.34
73671;BME280;61968;48.178;11.566;2023-05-18T04:13:05;96230.91;;;10.98;40.00
73671;BME280;61968;48.178;11.566;2023-05-18T04:15:31;96226.94;;;11.07;39.09
73671;BME280;61968;48.178;11.566;2023-05-18T04:18:00;96223.59;;;11.12;38.63
73671;BME280;61968;48.178;11.566;2023-05-18T04:20:26;96227.72;;;11.07;38.95
73671;BME280;61968;48.178;11.566;2023-05-18T04:22:54;96231.53;;;11.12;38.81
73671;BME280;61968;48.178;11.566;2023-05-18T04:25:22;96230.53;;;11.13;39.11
73671;BME280;61968;48.178;11.566;2023-05-18T04:27:52;96231.63;;;11.23;38.63
73671;BME280;61968;48.178;11.566;2023-05-18T04:30:19;96230.38;;;11.26;38.48
73671;BME280;61968;48.178;11.566;2023-05-18T04:32:46;96234.25;;;11.23;38.04
73671;BME280;61968;48.178;11.566;2023-05-18T04:35:15;96236.09;;;11.23;38.66
73671;BME280;61968;48.178;11.566;2023-05-18T04:37:42;96235.44;;;11.27;38.52
73671;BME280;61968;48.178;11.566;2023-05-18T04:40:09;96238.91;;;11.28;38.64
73671;BME280;61968;48.178;11.566;2023-05-18T04:42:38;96240.50;;;11.29;38.82
73671;BME280;61968;48.178;11.566;2023-05-18T04:45:10;96239.25;;;11.31;38.47
73671;BME280;61968;48.178;11.566;2023-05-18T04:47:41;96247.38;;;11.37;38.60
73671;BME280;61968;48.178;11.566;2023-05-18T04:50:10;96249.41;;;11.35;39.51
73671;BME280;61968;48.178;11.566;2023-05-18T04:52:38;96256.56;;;11.34;39.73
73671;BME280;61968;48.178;11.566;2023-05-18T04:55:07;96251.75;;;11.43;39.33
73671;BME280;61968;48.178;11.566;2023-05-18T04:57:35;96248.53;;;11.41;39.18
73671;BME280;61968;48.178;11.566;2023-05-18T05:00:02;96254.19;;;11.44;38.97
73671;BME280;61968;48.178;11.566;2023-05-18T05:02:30;96255.34;;;11.48;39.03
73671;BME280;61968;48.178;11.566;2023-05-18T05:04:56;96260.19;;;11.51;38.87
73671;BME280;61968;48.178;11.566;2023-05-18T05:07:23;96259.19;;;11.52;38.97
73671;BME280;61968;48.178;11.566;2023-05-18T05:09:51;96255.72;;;11.52;38.97
73671;BME280;61968;48.178;11.566;2023-05-18T05:12:17;96257.47;;;11.58;38.86
73671;BME280;61968;48.178;11.566;2023-05-18T05:14:45;96256.00;;;11.62;40.63
73671;BME280;61968;48.178;11.566;2023-05-18T05:17:12;96259.88;;;11.60;40.37
73671;BME280;61968;48.178;11.566;2023-05-18T05:19:38;96256.34;;;11.66;40.51
73671;BME280;61968;48.178;11.566;2023-05-18T05:22:06;96256.13;;;11.67;40.89
73671;BME280;61968;48.178;11.566;2023-05-18T05:24:33;96254.66;;;11.71;40.83
73671;BME280;61968;48.178;11.566;2023-05-18T05:27:01;96257.59;;;11.63;40.61
73671;BME280;61968;48.178;11.566;2023-05-18T05:29:27;96257.94;;;11.67;40.77
73671;BME280;61968;48.178;11.566;2023-05-18T05:31:53;96253.06;;;11.52;41.04
73671;BME280;61968;48.178;11.566;2023-05-18T05:34:20;96252.94;;;11.47;41.31
73671;BME280;61968;48.178;11.566;2023-05-18T05:36:47;96256.06;;;11.56;41.65
73671;BME280;61968;48.178;11.566;2023-05-18T05:39:13;96252.13;;;11.46;41.38
73671;BME280;61968;48.178;11.566;2023-05-18T05:41:40;96247.31;;;11.55;41.26
73671;BME280;61968;48.178;11.566;2023-05-18T05:44:07;96253.19;;;11.57;41.52
73671;BME280;61968;48.178;11.566;2023-05-18T05:46:34;96249.66;;;11.63;41.43
73671;BME280;61968;48.178;11.566;2023-05-18T05:49:00;96248.59;;;11.52;39.11
73671;BME280;61968;48.178;11.566;2023-05-18T05:51:27;96245.19;;;11.45;39.42
73671;BME280;61968;48.178;11.566;2023-05-18T05:53:53;96247.81;;;11.34;40.38
73671;BME280;61968;48.178;11.566;2023-05-18T05:56:20;96249.69;;;11.45;41.70
73671;BME280;61968;48.178;11.566;2023-05-18T05:58:47;96245.84;;;11.59;41.33
73671;BME280;61968;48.178;11.566;2023-05-18T06:01:15;96244.94;;;11.65;40.55
73671;BME280;61968;48.178;11.566;2023-05-18T06:03:41;96247.75;;;11.70;41.26
73671;BME280;61968;48.178;11.566;2023-05-18T06:06:09;96255.53;;;11.65;40.03
73671;BME280;61968;48.178;11.566;2023-05-18T06:08:36;96259.75;;;11.54;40.11
73671;BME280;61968;48.178;11.566;2023-05-18T06:11:02;96254.53;;;11.48;38.69
73671;BME280;61968;48.178;11.566;2023-05-18T06:13:29;96266.72;;;11.19;38.15
73671;BME280;61968;48.178;11.566;2023-05-18T06:15:56;96254.56;;;11.11;41.19
73671;BME280;61968;48.178;11.566;2023-05-18T06:18:24;96266.09;;;11.17;41.80
73671;BME280;61968;48.178;11.566;2023-05-18T06:20:50;96268.75;;;11.17;38.59
73671;BME280;61968;48.178;11.566;2023-05-18T06:23:17;96269.56;;;10.99;41.47
73671;BME280;61968;48.178;11.566;2023-05-18T06:25:46;96266.03;;;11.05;39.94
73671;BME280;61968;48.178;11.566;2023-05-18T06:28:13;96271.31;;;11.05;40.44
73671;BME280;61968;48.178;11.566;2023-05-18T06:30:39;96260.22;;;10.96;39.21
73671;BME280;61968;48.178;11.566;2023-05-18T06:33:06;96263.22;;;11.00;39.92
73671;BME280;61968;48.178;11.566;2023-05-18T06:35:34;96261.63;;;10.99;40.13
73671;BME280;61968;48.178;11.566;2023-05-18T06:38:01;96261.25;;;10.95;39.36
73671;BME280;61968;48.178;11.566;2023-05-18T06:40:28;96261.31;;;10.89;39.88
73671;BME280;61968;48.178;11.566;2023-05-18T06:42:54;96271.06;;;10.88;43.19
73671;BME280;61968;48.178;11.566;2023-05-18T06:45:21;96265.22;;;11.04;42.44
73671;BME280;61968;48.178;11.566;2023-05-18T06:47:47;96263.38;;;11.05;41.61
73671;BME280;61968;48.178;11.566;2023-05-18T06:50:14;96267.50;;;11.19;41.32
73671;BME280;61968;48.178;11.566;2023-05-18T06:52:43;96268.97;;;11.34;42.04
73671;BME280;61968;48.178;11.566;2023-05-18T06:55:09;96265.94;;;11.48;41.34
73671;BME280;61968;48.178;11.566;2023-05-18T06:57:36;96264.81;;;11.56;41.27
73671;BME280;61968;48.178;11.566;2023-05-18T07:00:03;96264.53;;;11.64;41.15
73671;BME280;61968;48.178;11.566;2023-05-18T07:02:31;96271.06;;;11.80;41.10
73671;BME280;61968;48.178;11.566;2023-05-18T07:04:57;96272.00;;;11.86;38.79
73671;BME280;61968;48.178;11.566;2023-05-18T07:07:25;96274.88;;;11.84;40.34
73671;BME280;61968;48.178;11.566;2023-05-18T07:09:53;96272.50;;;11.94;40.70
73671;BME280;61968;48.178;11.566;2023-05-18T07:12:19;96266.16;;;11.95;40.50
73671;BME280;61968;48.178;11.566;2023-05-18T07:14:46;96262.50;;;12.08;40.30
73671;BME280;61968;48.178;11.566;2023-05-18T07:17:13;96269.09;;;12.17;39.89
73671;BME280;61968;48.178;11.566;2023-05-18T07:19:39;96264.25;;;12.14;39.77
73671;BME280;61968;48.178;11.566;2023-05-18T07:22:06;96262.41;;;12.15;39.21
73671;BME280;61968;48.178;11.566;2023-05-18T07:24:33;96263.09;;;12.10;40.33
73671;BME280;61968;48.178;11.566;2023-05-18T07:27:00;96266.34;;;12.12;39.89
73671;BME280;61968;48.178;11.566;2023-05-18T07:29:27;96267.03;;;12.19;38.23
73671;BME280;61968;48.178;11.566;2023-05-18T07:31:54;96269.81;;;12.25;38.85
73671;BME280;61968;48.178;11.566;2023-05-18T07:34:20;96262.22;;;12.28;39.40
73671;BME280;61968;48.178;11.566;2023-05-18T07:36:47;96263.03;;;12.29;38.07
73671;BME280;61968;48.178;11.566;2023-05-18T07:39:13;96270.88;;;12.35;39.39
73671;BME280;61968;48.178;11.566;2023-05-18T07:41:43;96257.94;;;12.39;39.15
73671;BME280;61968;48.178;11.566;2023-05-18T07:44:11;96265.91;;;12.39;39.62
73671;BME280;61968;48.178;11.566;2023-05-18T07:46:37;96267.09;;;12.43;36.69
73671;BME280;61968;48.178;11.566;2023-05-18T07:49:04;96265.44;;;12.42;38.26
73671;BME280;61968;48.178;11.566;2023-05-18T07:51:31;96258.19;;;12.37;37.32
73671;BME280;61968;48.178;11.566;2023-05-18T07:53:58;96267.63;;;12.33;36.74
73671;BME280;61968;48.178;11.566;2023-05-18T07:56:25;96268.09;;;12.30;37.93
73671;BME280;61968;48.178;11.566;2023-05-18T07:58:51;96265.91;;;12.39;37.93
73671;BME280;61968;48.178;11.566;2023-05-18T08:01:19;96270.19;;;12.40;37.41
73671;BME280;61968;48.178;11.566;2023-05-18T08:03:51;96262.94;;;12.47;38.80
73671;BME280;61968;48.178;11.566;2023-05-18T08:06:17;96265.22;;;12.32;37.19
73671;BME280;61968;48.178;11.566;2023-05-18T08:08:44;96263.22;;;12.27;39.49
73671;BME280;61968;48.178;11.566;2023-05-18T08:11:11;96264.06;;;12.51;37.47
73671;BME280;61968;48.178;11.566;2023-05-18T08:13:37;96265.81;;;12.34;39.10
73671;BME280;61968;48.178;11.566;2023-05-18T08:16:04;96258.88;;;12.44;36.72
73671;BME280;61968;48.178;11.566;2023-05-18T08:18:33;96270.53;;;12.32;37.16
73671;BME280;61968;48.178;11.566;2023-05-18T08:21:00;96270.75;;;12.42;37.29
73671;BME280;61968;48.178;11.566;2023-05-18T08:23:28;96267.31;;;12.53;36.14
73671;BME280;61968;48.178;11.566;2023-05-18T08:25:55;96275.50;;;12.40;37.79
73671;BME280;61968;48.178;11.566;2023-05-18T08:28:24;96271.66;;;12.36;36.50
73671;BME280;61968;48.178;11.566;2023-05-18T08:30:50;96271.09;;;12.34;36.46
73671;BME280;61968;48.178;11.566;2023-05-18T08:33:17;96271.94;;;12.46;39.60
73671;BME280;61968;48.178;11.566;2023-05-18T08:35:45;96271.94;;;12.46;39.10
73671;BME280;61968;48.178;11.566;2023-05-18T08:38:12;96268.84;;;12.61;37.39
73671;BME280;61968;48.178;11.566;2023-05-18T08:40:42;96260.50;;;12.57;36.84
73671;BME280;61968;48.178;11.566;2023-05-18T08:43:15;96258.47;;;12.71;36.45
73671;BME280;61968;48.178;11.566;2023-05-18T08:45:49;96264.13;;;12.75;37.28
73671;BME280;61968;48.178;11.566;2023-05-18T08:48:18;96266.19;;;12.73;36.72
73671;BME280;61968;48.178;11.566;2023-05-18T08:50:50;96258.66;;;12.46;37.66
73671;BME280;61968;48.178;11.566;2023-05-18T08:53:20;96255.91;;;12.53;39.18
73671;BME280;61968;48.178;11.566;2023-05-18T08:55:48;96247.16;;;12.87;35.50
73671;BME280;61968;48.178;11.566;2023-05-18T08:58:18;96249.78;;;13.11;37.85
73671;BME280;61968;48.178;11.566;2023-05-18T09:00:45;96257.25;;;13.38;37.13
73671;BME280;61968;48.178;11.566;2023-05-18T09:03:12;96250.41;;;13.53;36.19
73671;BME280;61968;48.178;11.566;2023-05-18T09:05:39;96247.28;;;13.56;35.27
73671;BME280;61968;48.178;11.566;2023-05-18T09:08:08;96254.50;;;13.73;36.19
73671;BME280;61968;48.178;11.566;2023-05-18T09:10:35;96256.13;;;13.91;34.39
73671;BME280;61968;48.178;11.566;2023-05-18T09:13:02;96254.47;;;14.01;35.26
73671;BME280;61968;48.178;11.566;2023-05-18T09:15:30;96254.56;;;14.23;34.97
73671;BME280;61968;48.178;11.566;2023-05-18T09:17:56;96258.63;;;14.26;34.53
73671;BME280;61968;48.178;11.566;2023-05-18T09:20:24;96266.03;;;14.24;33.74
73671;BME280;61968;48.178;11.566;2023-05-18T09:22:51;96263.19;;;14.14;32.73
73671;BME280;61968;48.178;11.566;2023-05-18T09:25:20;96261.41;;;14.02;32.78
73671;BME280;61968;48.178;11.566;2023-05-18T09:27:47;96259.19;;;13.83;34.03
73671;BME280;61968;48.178;11.566;2023-05-18T09:30:16;96263.50;;;13.72;32.94
73671;BME280;61968;48.178;11.566;2023-05-18T09:32:45;96258.22;;;13.60;31.93
73671;BME280;61968;48.178;11.566;2023-05-18T09:35:12;96255.63;;;13.36;32.95
73671;BME280;61968;48.178;11.566;2023-05-18T09:37:40;96260.50;;;13.28;33.83
73671;BME280;61968;48.178;11.566;2023-05-18T09:40:07;96254.72;;;13.31;33.44
73671;BME280;61968;48.178;11.566;2023-05-18T09:42:36;96263.34;;;13.38;35.58
73671;BME280;61968;48.178;11.566;2023-05-18T09:45:06;96259.09;;;13.37;32.97
73671;BME280;61968;48.178;11.566;2023-05-18T09:47:40;96259.44;;;13.41;33.20
73671;BME280;61968;48.178;11.566;2023-05-18T09:50:08;96258.97;;;13.44;35.22
73671;BME280;61968;48.178;11.566;2023-05-18T09:52:39;96251.31;;;13.47;33.32
73671;BME280;61968;48.178;11.566;2023-05-18T09:55:07;96250.50;;;13.58;34.97
73671;BME280;61968;48.178;11.566;2023-05-18T09:57:39;96253.84;;;13.54;35.53
73671;BME280;61968;48.178;11.566;2023-05-18T10:00:07;96258.00;;;13.50;35.99
73671;BME280;61968;48.178;11.566;2023-05-18T10:02:37;96261.13;;;13.47;33.30
73671;BME280;61968;48.178;11.566;2023-05-18T10:05:04;96253.97;;;13.47;33.97
73671;BME280;61968;48.178;11.566;2023-05-18T10:07:33;96264.59;;;13.47;36.15
73671;BME280;61968;48.178;11.566;2023-05-18T10:10:01;96267.97;;;13.83;35.45
73671;BME280;61968;48.178;11.566;2023-05-18T10:12:28;96261.44;;;13.91;34.55
73671;BME280;61968;48.178;11.566;2023-05-18T10:14:56;96261.00;;;14.11;33.70
73671;BME280;61968;48.178;11.566;2023-05-18T10:17:23;96257.25;;;14.23;34.08
73671;BME280;61968;48.178;11.566;2023-05-18T10:19:53;96258.72;;;14.31;31.53
73671;BME280;61968;48.178;11.566;2023-05-18T10:22:21;96263.13;;;14.25;32.60
73671;BME280;61968;48.178;11.566;2023-05-18T10:24:50;96263.66;;;14.39;32.95
73671;BME280;61968;48.178;11.566;2023-05-18T10:27:21;96256.56;;;14.45;33.41
73671;BME280;61968;48.178;11.566;2023-05-18T10:29:48;96260.09;;;14.50;32.54
73671;BME280;61968;48.178;11.566;2023-05-18T10:32:19;96258.97;;;14.46;33.59
73671;BME280;61968;48.178;11.566;2023-05-18T10:34:48;96255.19;;;14.59;31.62
73671;BME280;61968;48.178;11.566;2023-05-18T10:37:18;96258.00;;;14.53;31.49
73671;BME280;61968;48.178;11.566;2023-05-18T10:39:49;96247.38;;;14.53;32.69
73671;BME280;61968;48.178;11.566;2023-05-18T10:42:17;96266.09;;;14.58;33.01
73671;BME280;61968;48.178;11.566;2023-05-18T10:44:44;96248.16;;;14.70;32.53
73671;BME280;61968;48.178;11.566;2023-05-18T10:47:13;96255.72;;;14.78;31.91
73671;BME280;61968;48.178;11.566;2023-05-18T10:49:42;96257.34;;;14.79;31.96
73671;BME280;61968;48.178;11.566;2023-05-18T10:52:11;96254.19;;;14.82;31.96
73671;BME280;61968;48.178;11.566;2023-05-18T10:54:39;96246.97;;;15.00;31.58
73671;BME280;61968;48.178;11.566;2023-05-18T10:57:09;96252.91;;;14.85;30.84
73671;BME280;61968;48.178;11.566;2023-05-18T10:59:38;96256.88;;;14.82;32.78
73671;BME280;61968;48.178;11.566;2023-05-18T11:02:05;96261.13;;;14.83;32.47
73671;BME280;61968;48.178;11.566;2023-05-18T11:04:33;96267.34;;;14.89;32.84
73671;BME280;61968;48.178;11.566;2023-05-18T11:07:01;96248.81;;;14.99;32.56
73671;BME280;61968;48.178;11.566;2023-05-18T11:09:28;96261.13;;;15.00;32.84
73671;BME280;61968;48.178;11.566;2023-05-18T11:11:57;96258.59;;;14.93;29.64
73671;BME280;61968;48.178;11.566;2023-05-18T11:14:24;96249.59;;;14.94;32.71
73671;BME280;61968;48.178;11.566;2023-05-18T11:16:52;96255.22;;;14.98;31.75
73671;BME280;61968;48.178;11.566;2023-05-18T11:19:23;96244.25;;;14.94;32.63
73671;BME280;61968;48.178;11.566;2023-05-18T11:21:51;96238.63;;;15.13;31.62
73671;BME280;61968;48.178;11.566;2023-05-18T11:24:22;96254.84;;;15.11;31.90
73671;BME280;61968;48.178;11.566;2023-05-18T11:26:50;96249.41;;;15.01;31.82
73671;BME280;61968;48.178;11.566;2023-05-18T11:29:22;96254.41;;;14.98;30.84
73671;BME280;61968;48.178;11.566;2023-05-18T11:31:50;96249.63;;;15.00;31.18
73671;BME280;61968;48.178;11.566;2023-05-18T11:34:40;96245.53;;;14.92;31.48
73671;BME280;61968;48.178;11.566;2023-05-18T11:37:09;96248.78;;;14.94;31.42
73671;BME280;61968;48.178;11.566;2023-05-18T11:39:37;96248.03;;;14.99;31.12
73671;BME280;61968;48.178;11.566;2023-05-18T11:42:08;96260.47;;;14.93;31.47
73671;BME280;61968;48.178;11.566;2023-05-18T11:44:35;96246.97;;;15.00;31.31
73671;BME280;61968;48.178;11.566;2023-05-18T11:47:06;96263.22;;;14.98;31.14
73671;BME280;61968;48.178;11.566;2023-05-18T11:49:36;96266.09;;;14.96;30.55
73671;BME280;61968;48.178;11.566;2023-05-18T11:52:05;96266.47;;;14.83;31.28
73671;BME280;61968;48.178;11.566;2023-05-18T11:54:34;96264.13;;;14.70;31.37
73671;BME280;61968;48.178;11.566;2023-05-18T11:57:05;96260.59;;;14.64;31.43
73671;BME280;61968;48.178;11.566;2023-05-18T11:59:35;96262.84;;;14.56;31.85
73671;BME280;61968;48.178;11.566;2023-05-18T12:02:02;96266.88;;;14.58;31.79
73671;BME280;61968;48.178;11.566;2023-05-18T12:04:29;96254.69;;;14.62;32.11
73671;BME280;61968;48.178;11.566;2023-05-18T12:06:58;96258.72;;;14.65;32.15
73671;BME280;61968;48.178;11.566;2023-05-18T12:09:26;96246.72;;;14.62;31.84
73671;BME280;61968;48.178;11.566;2023-05-18T12:11:56;96243.25;;;14.62;31.56
73671;BME280;61968;48.178;11.566;2023-05-18T12:14:24;96249.63;;;14.61;31.34
73671;BME280;61968;48.178;11.566;2023-05-18T12:16:52;96248.50;;;14.57;32.47
73671;BME280;61968;48.178;11.566;2023-05-18T12:19:19;96241.56;;;14.56;32.03
73671;BME280;61968;48.178;11.566;2023-05-18T12:21:48;96250.91;;;14.58;32.39
73671;BME280;61968;48.178;11.566;2023-05-18T12:24:14;96251.09;;;14.52;33.08
73671;BME280;61968;48.178;11.566;2023-05-18T12:26:41;96246.75;;;14.45;29.60
73671;BME280;61968;48.178;11.566;2023-05-18T12:29:10;96255.91;;;14.38;32.55
73671;BME280;61968;48.178;11.566;2023-05-18T12:31:45;96245.88;;;14.28;31.76
73671;BME280;61968;48.178;11.566;2023-05-18T12:34:13;96250.84;;;14.36;31.69
73671;BME280;61968;48.178;11.566;2023-05-18T12:36:49;96253.06;;;14.27;31.84
73671;BME280;61968;48.178;11.566;2023-05-18T12:39:16;96249.44;;;14.34;32.97
73671;BME280;61968;48.178;11.566;2023-05-18T12:41:43;96246.56;;;14.52;33.34
73671;BME280;61968;48.178;11.566;2023-05-18T12:44:09;96244.72;;;14.69;32.58
73671;BME280;61968;48.178;11.566;2023-05-18T12:46:36;96242.66;;;14.77;31.67
73671;BME280;61968;48.178;11.566;2023-05-18T12:49:04;96246.53;;;14.69;31.52
73671;BME280;61968;48.178;11.566;2023-05-18T12:51:31;96240.50;;;14.73;32.79
73671;BME280;61968;48.178;11.566;2023-05-18T12:53:59;96242.09;;;14.75;33.50
73671;BME280;61968;48.178;11.566;2023-05-18T12:56:26;96248.00;;;14.77;33.64